Yangon International Airport
VYYY : now visible

Airfield :











YOU CAN JOIN US ON...

 
LOGIN :

Register | Disclaimer

   EN    FR    IT 

 









Legend :    VFR   Marginal VFR   IFR   Intensive IFR   Very Intensive IFR
Visi :
Ceiling :
>= 8 km
>= 3000ft
5 to 8 km
1000 to 3000 ft
1500m to 5 km
500 to 1000 ft
800 to 1500m
200 to 500 ft
< 800m
< 200 ft
Symbols :   Thunderstorms  Fog  Heavy snow  Heavy precipitations  Wind > 20 kt






- Airport Elevation : 109 ft
- IATA code : RGN


VYYY - Yangon International

CURRENT METAR :
  • 091500Z 27007KT 7000 SCT016 FEW020CB BKN280 28/25 Q1005 NOSIG

EXPIRED METARs :
  • 091430Z 25007KT 7000 SCT016 FEW020CB BKN280 28/25 Q1005 NOSIG
  • 091400Z 23005KT 7000 SCT016 FEW020CB BKN280 28/25 Q1004 NOSIG
  • 091330Z 24005KT 7000 SCT016 FEW020CB BKN280 28/25 Q1004 NOSIG
  • 091300Z 22006KT 7000 SCT016 FEW020CB BKN280 28/25 Q1003 NOSIG
  • 091230Z 20006KT 7000 SCT016 FEW020CB BKN280 29/26 Q1003 NOSIG
  • 091200Z 19006KT 7000 BKN015 FEW020CB BKN100 30/25 Q1003 NOSIG

TAF TAF VYYY
Valid from the 09 at 12:00 until the 10 at 12:00 UTC


091100Z 0912/1012 20006KT 7000 SCT015 FEW020CB BKN100
TEMPO 0912/0918 16006KT
TEMPO 1006/1012 23008G18KT 3000 TSRA BKN010 FEW016CB OVC080
VYYF FIR / Asia



MET'MAP, your aeronautical weather chart ! - Copyright ORBIFLY December 2007 - Disclaimer

ORBIFLY MET'MAP TEAM :

Programming & Development : Alexandra Zaïnal
Concept & original design : Baudouin d'Aumeries
Assistance for programming : Marc-Olivier Méhu
Technical & hardware support : Manuel Goepfert

Contact : metmap@orbifly.com




SOURCES & CREDITS :

   NOAA       Earth
Advisory